Time;durP1;ratioP1;P1;durP2;ratioP2;P2;SDS_P1;SDS_P2;PMS_P1;PMS_P2;Temp;Humidity;BMP_temperature;BMP_pressure;BME280_temperature;BME280_humidity;BME280_pressure;Samples;Min_cycle;Max_cycle;Signal;HPM_P1;HPM_P2
2022/01/30 00:01:52;;;;;;;80.38;37.95;;;;;;;;;;4986658;28;20064;-70
2022/01/30 00:04:19;;;;;;;21.25;8.93;;;;;;;;;;4986853;28;20066;-72
2022/01/30 00:06:46;;;;;;;26.17;15.50;;;;;;;;;;4986486;28;20109;-70
2022/01/30 00:09:21;;;;;;;22.00;10.93;;;;;;;;;;4981092;28;20050;-68
2022/01/30 00:11:53;;;;;;;29.90;18.25;;;;;;;;;;4982491;28;21357;-68
2022/01/30 00:14:21;;;;;;;25.75;10.60;;;;;;;;;;4984081;28;20580;-69
2022/01/30 00:16:56;;;;;;;21.35;8.07;;;;;;;;;;4981330;28;20034;-69
2022/01/30 00:19:31;;;;;;;17.77;9.68;;;;;;;;;;4983932;28;20030;-69
2022/01/30 00:24:56;;;;;;;19.60;8.95;;;;;;;;;;4982974;28;20057;-69
2022/01/30 00:27:32;;;;;;;14.80;7.75;;;;;;;;;;4982086;28;20093;-70
2022/01/30 00:29:58;;;;;;;20.75;12.90;;;;;;;;;;4982928;28;20116;-69
2022/01/30 00:32:25;;;;;;;24.38;18.02;;;;;;;;;;4982360;28;20026;-69
2022/01/30 00:34:51;;;;;;;26.52;18.80;;;;;;;;;;4995036;28;20117;-68
2022/01/30 00:37:18;;;;;;;20.95;11.55;;;;;;;;;;4982931;28;20046;-69
2022/01/30 00:39:46;;;;;;;20.60;9.07;;;;;;;;;;4981804;28;20034;-68
2022/01/30 00:42:12;;;;;;;14.18;7.72;;;;;;;;;;4982892;28;20030;-68
2022/01/30 00:44:38;;;;;;;17.75;7.03;;;;;;;;;;4981687;28;20038;-70
2022/01/30 00:47:05;;;;;;;16.80;9.10;;;;;;;;;;4981503;28;20034;-70
2022/01/30 00:49:31;;;;;;;16.25;9.95;;;;;;;;;;4982957;28;20030;-70
2022/01/30 00:51:57;;;;;;;16.70;7.68;;;;;;;;;;4999582;28;20034;-70
2022/01/30 00:54:23;;;;;;;11.23;6.22;;;;;;;;;;4998031;28;20034;-70
2022/01/30 00:56:49;;;;;;;15.25;6.18;;;;;;;;;;4982233;28;20060;-70
2022/01/30 00:59:15;;;;;;;14.93;6.75;;;;;;;;;;4980462;28;20057;-70
2022/01/30 01:01:41;;;;;;;15.20;7.47;;;;;;;;;;4995261;28;20054;-69
2022/01/30 01:04:07;;;;;;;17.40;7.80;;;;;;;;;;4982903;28;20511;-70
2022/01/30 01:06:33;;;;;;;15.25;7.90;;;;;;;;;;4982720;28;20104;-70
2022/01/30 01:09:02;;;;;;;17.02;8.45;;;;;;;;;;4982072;28;20050;-69
2022/01/30 01:12:07;;;;;;;11.65;5.75;;;;;;;;;;4979982;28;20718;-69
2022/01/30 01:25:23;;;;;;;22.48;6.88;;;;;;;;;;4982726;28;20053;-69
2022/01/30 01:27:49;;;;;;;18.98;6.38;;;;;;;;;;4982109;28;20057;-69
2022/01/30 01:30:15;;;;;;;15.18;6.20;;;;;;;;;;4997184;28;20108;-68
2022/01/30 01:32:41;;;;;;;17.10;5.75;;;;;;;;;;4978875;28;20481;-69
2022/01/30 01:35:08;;;;;;;14.30;6.65;;;;;;;;;;4980708;28;20034;-69
2022/01/30 01:37:34;;;;;;;13.65;6.07;;;;;;;;;;4982185;28;20130;-69
2022/01/30 01:40:00;;;;;;;15.73;6.07;;;;;;;;;;4982665;28;20033;-70
2022/01/30 01:42:30;;;;;;;17.90;5.47;;;;;;;;;;4984326;28;20085;-69
2022/01/30 01:44:58;;;;;;;12.02;6.15;;;;;;;;;;4983554;28;20053;-69
2022/01/30 01:47:29;;;;;;;9.88;5.53;;;;;;;;;;4985282;28;20054;-69
2022/01/30 01:49:55;;;;;;;18.80;6.45;;;;;;;;;;4985825;28;20030;-70
2022/01/30 01:52:26;;;;;;;12.20;4.88;;;;;;;;;;5001206;28;20019;-69
2022/01/30 01:54:53;;;;;;;12.98;5.35;;;;;;;;;;4985047;28;20026;-70
2022/01/30 01:57:20;;;;;;;17.10;6.43;;;;;;;;;;4984323;28;20035;-69
2022/01/30 01:59:46;;;;;;;12.07;6.65;;;;;;;;;;4986073;28;20026;-68
2022/01/30 02:02:13;;;;;;;12.60;6.40;;;;;;;;;;4986098;28;20057;-69
2022/01/30 02:04:41;;;;;;;12.10;5.28;;;;;;;;;;4983620;28;20066;-69
2022/01/30 02:09:48;;;;;;;12.73;6.25;;;;;;;;;;4985951;28;20488;-69
2022/01/30 02:12:24;;;;;;;12.13;5.15;;;;;;;;;;5000405;28;20066;-69
2022/01/30 02:26:09;;;;;;;11.80;4.88;;;;;;;;;;4987755;28;20033;-68
2022/01/30 02:28:35;;;;;;;12.50;4.40;;;;;;;;;;4987335;28;20053;-68
2022/01/30 02:31:07;;;;;;;19.13;4.85;;;;;;;;;;4999044;28;20027;-69
2022/01/30 02:33:34;;;;;;;9.05;4.68;;;;;;;;;;4985105;28;20291;-69
2022/01/30 02:36:00;;;;;;;10.77;4.50;;;;;;;;;;4983484;28;20503;-70
2022/01/30 02:38:26;;;;;;;15.02;4.45;;;;;;;;;;4982410;28;20081;-70
2022/01/30 02:40:55;;;;;;;18.98;5.32;;;;;;;;;;4983575;28;20045;-70
2022/01/30 02:43:26;;;;;;;12.30;5.40;;;;;;;;;;4985129;28;20552;-70
2022/01/30 02:48:52;;;;;;;13.30;5.28;;;;;;;;;;4983721;28;20041;-70
2022/01/30 02:51:21;;;;;;;13.82;5.60;;;;;;;;;;4985994;28;20026;-69
2022/01/30 02:53:56;;;;;;;14.95;5.13;;;;;;;;;;4985527;28;20033;-69
2022/01/30 02:56:22;;;;;;;19.85;5.90;;;;;;;;;;4984498;28;20436;-69
2022/01/30 02:58:48;;;;;;;10.25;4.78;;;;;;;;;;4986362;28;20033;-68
2022/01/30 03:01:14;;;;;;;13.55;4.65;;;;;;;;;;4983772;28;20034;-68
2022/01/30 03:03:40;;;;;;;17.20;5.95;;;;;;;;;;4984049;28;20039;-69
2022/01/30 03:06:06;;;;;;;16.08;6.53;;;;;;;;;;4982783;28;20108;-69
2022/01/30 03:08:32;;;;;;;13.23;5.00;;;;;;;;;;4983290;28;20054;-69
2022/01/30 03:10:58;;;;;;;13.35;5.05;;;;;;;;;;4985370;28;20399;-69
2022/01/30 03:13:24;;;;;;;13.88;5.10;;;;;;;;;;4982576;28;20034;-69
2022/01/30 03:15:51;;;;;;;15.43;6.50;;;;;;;;;;4998568;28;20030;-70
2022/01/30 03:18:17;;;;;;;23.25;7.68;;;;;;;;;;4985665;28;20026;-69
2022/01/30 03:20:43;;;;;;;19.45;9.00;;;;;;;;;;4984182;28;20038;-71
2022/01/30 03:23:09;;;;;;;11.77;7.10;;;;;;;;;;4984902;28;20038;-70
2022/01/30 03:25:35;;;;;;;10.63;4.90;;;;;;;;;;4985649;28;20527;-69
2022/01/30 03:28:01;;;;;;;18.02;7.75;;;;;;;;;;4998364;28;20031;-70
2022/01/30 03:30:30;;;;;;;13.40;7.72;;;;;;;;;;4985899;28;20033;-70
2022/01/30 03:32:56;;;;;;;21.15;7.97;;;;;;;;;;4987328;28;20050;-69
2022/01/30 03:35:22;;;;;;;15.55;6.47;;;;;;;;;;5003439;28;20493;-69
2022/01/30 03:37:48;;;;;;;15.95;6.75;;;;;;;;;;4987238;28;20385;-70
2022/01/30 03:40:14;;;;;;;13.38;5.60;;;;;;;;;;4981865;28;20105;-69
2022/01/30 03:42:40;;;;;;;7.85;4.72;;;;;;;;;;4980990;28;20034;-69
2022/01/30 03:45:07;;;;;;;12.95;5.50;;;;;;;;;;4983958;28;20034;-69
2022/01/30 03:47:33;;;;;;;19.10;5.07;;;;;;;;;;4984351;28;20037;-69
2022/01/30 03:49:59;;;;;;;14.18;5.57;;;;;;;;;;4984913;28;20030;-69
2022/01/30 03:52:25;;;;;;;14.52;4.95;;;;;;;;;;4983154;28;20035;-69
2022/01/30 03:54:51;;;;;;;13.32;5.18;;;;;;;;;;4982203;28;20454;-69
2022/01/30 03:57:17;;;;;;;12.10;5.15;;;;;;;;;;4998232;28;20034;-69
2022/01/30 03:59:43;;;;;;;14.43;4.97;;;;;;;;;;4983539;28;20030;-69
2022/01/30 04:02:09;;;;;;;11.98;6.38;;;;;;;;;;4983967;28;20037;-70
2022/01/30 04:04:35;;;;;;;16.52;6.53;;;;;;;;;;4982952;28;20027;-69
2022/01/30 04:07:02;;;;;;;9.70;4.70;;;;;;;;;;4982158;28;20034;-69
2022/01/30 04:09:28;;;;;;;21.40;6.18;;;;;;;;;;4979437;28;20065;-69
2022/01/30 04:11:55;;;;;;;8.65;4.10;;;;;;;;;;4981322;28;20034;-69
2022/01/30 04:14:21;;;;;;;17.75;5.07;;;;;;;;;;4984482;28;20047;-70
2022/01/30 04:16:47;;;;;;;17.63;4.95;;;;;;;;;;4980121;28;20113;-69
2022/01/30 04:19:13;;;;;;;15.20;4.90;;;;;;;;;;4984296;28;20575;-69
2022/01/30 04:21:40;;;;;;;13.38;4.38;;;;;;;;;;4981805;28;20034;-69
2022/01/30 04:24:06;;;;;;;12.38;5.47;;;;;;;;;;4985540;28;20026;-70
2022/01/30 04:26:32;;;;;;;16.42;4.88;;;;;;;;;;4981501;28;20058;-72
2022/01/30 04:28:59;;;;;;;16.60;6.22;;;;;;;;;;4987321;28;21403;-71
2022/01/30 04:31:25;;;;;;;7.55;4.50;;;;;;;;;;4985397;28;20473;-70
2022/01/30 04:33:51;;;;;;;11.52;4.50;;;;;;;;;;4982739;28;20030;-68
2022/01/30 04:36:23;;;;;;;14.85;5.25;;;;;;;;;;4981776;28;20057;-69
2022/01/30 05:00:22;;;;;;;12.73;4.35;;;;;;;;;;4979079;28;20027;-69
2022/01/30 05:07:47;;;;;;;8.10;4.50;;;;;;;;;;4981053;28;20049;-69
2022/01/30 05:10:14;;;;;;;14.10;4.40;;;;;;;;;;4984437;28;20497;-70
2022/01/30 05:13:00;;;;;;;13.00;4.40;;;;;;;;;;4989140;28;20069;-69
2022/01/30 05:15:28;;;;;;;18.30;4.28;;;;;;;;;;4990095;28;20049;-70
2022/01/30 05:17:54;;;;;;;12.45;4.80;;;;;;;;;;4978713;28;20018;-70
2022/01/30 05:20:20;;;;;;;8.77;4.22;;;;;;;;;;4986820;28;20023;-69
2022/01/30 05:22:47;;;;;;;16.00;4.57;;;;;;;;;;4987931;28;20038;-69
2022/01/30 05:25:13;;;;;;;12.68;5.25;;;;;;;;;;4986610;28;20058;-70
2022/01/30 05:27:39;;;;;;;11.57;4.72;;;;;;;;;;4985368;28;20038;-68
2022/01/30 05:30:06;;;;;;;10.85;3.92;;;;;;;;;;4978322;28;20084;-69
2022/01/30 05:32:32;;;;;;;11.68;4.22;;;;;;;;;;4979773;28;20422;-70
2022/01/30 05:34:59;;;;;;;11.15;4.35;;;;;;;;;;4986491;28;20031;-70
2022/01/30 05:37:25;;;;;;;16.00;5.28;;;;;;;;;;4976686;28;20424;-70
2022/01/30 05:39:51;;;;;;;11.15;4.53;;;;;;;;;;4978574;28;20038;-69
2022/01/30 05:42:19;;;;;;;12.98;4.68;;;;;;;;;;4981502;28;20026;-69
2022/01/30 05:45:31;;;;;;;10.55;4.57;;;;;;;;;;4978795;28;20042;-69
2022/01/30 05:47:44;;;;;;;14.82;4.80;;;;;;;;;;4988218;28;20041;-69
2022/01/30 05:50:11;;;;;;;10.98;4.68;;;;;;;;;;4984917;28;20795;-70
2022/01/30 05:52:37;;;;;;;15.88;4.63;;;;;;;;;;4977491;28;20027;-70
2022/01/30 05:55:03;;;;;;;8.65;3.65;;;;;;;;;;4981959;28;20022;-70
2022/01/30 05:57:29;;;;;;;14.57;5.13;;;;;;;;;;4984126;28;20027;-69
2022/01/30 05:59:55;;;;;;;11.63;4.63;;;;;;;;;;4988271;28;20023;-69
2022/01/30 06:02:21;;;;;;;15.20;4.43;;;;;;;;;;4977070;28;20039;-70
2022/01/30 06:04:47;;;;;;;17.70;4.20;;;;;;;;;;4980335;28;20030;-70
2022/01/30 06:07:14;;;;;;;12.07;4.20;;;;;;;;;;4987915;28;20030;-70
2022/01/30 06:09:40;;;;;;;13.52;4.32;;;;;;;;;;4988940;28;20054;-69
2022/01/30 06:12:06;;;;;;;11.32;3.55;;;;;;;;;;4996684;28;20027;-69
2022/01/30 06:14:32;;;;;;;13.90;4.88;;;;;;;;;;4977351;28;20034;-68
2022/01/30 06:16:58;;;;;;;10.48;4.22;;;;;;;;;;4990215;28;21304;-70
2022/01/30 06:19:26;;;;;;;15.68;3.78;;;;;;;;;;4990930;28;20109;-69
2022/01/30 06:21:52;;;;;;;7.13;3.95;;;;;;;;;;4980578;28;20023;-69
2022/01/30 06:24:18;;;;;;;7.63;3.90;;;;;;;;;;4981203;28;20061;-69
2022/01/30 06:26:44;;;;;;;16.08;6.07;;;;;;;;;;4983238;28;20378;-68
2022/01/30 06:29:10;;;;;;;13.45;3.83;;;;;;;;;;4981028;28;20038;-69
2022/01/30 06:31:36;;;;;;;10.70;3.97;;;;;;;;;;4993463;28;20023;-70
2022/01/30 06:34:02;;;;;;;6.13;3.63;;;;;;;;;;4981288;28;20123;-70
2022/01/30 06:36:28;;;;;;;9.20;3.83;;;;;;;;;;4990757;28;20041;-69
2022/01/30 06:38:54;;;;;;;12.93;3.95;;;;;;;;;;4981766;28;20043;-69
2022/01/30 06:41:21;;;;;;;7.40;3.95;;;;;;;;;;4979784;28;20030;-70
2022/01/30 06:43:47;;;;;;;19.08;4.97;;;;;;;;;;4979088;28;20544;-70
2022/01/30 06:46:15;;;;;;;12.43;3.80;;;;;;;;;;4983806;28;20034;-68
2022/01/30 06:48:41;;;;;;;10.73;4.15;;;;;;;;;;4978237;28;20573;-69
2022/01/30 06:51:07;;;;;;;8.80;3.15;;;;;;;;;;4978767;28;20046;-69
2022/01/30 06:53:33;;;;;;;19.13;4.55;;;;;;;;;;4983565;28;20046;-69
2022/01/30 06:55:59;;;;;;;8.32;3.20;;;;;;;;;;4985479;28;20050;-70
2022/01/30 06:58:25;;;;;;;11.50;3.38;;;;;;;;;;4982855;28;20045;-70
2022/01/30 07:00:52;;;;;;;13.50;4.18;;;;;;;;;;4975569;28;20094;-69
2022/01/30 07:03:18;;;;;;;10.88;4.05;;;;;;;;;;4977245;28;20035;-70
2022/01/30 07:05:44;;;;;;;8.95;3.97;;;;;;;;;;4983734;28;20031;-70
2022/01/30 07:08:10;;;;;;;5.97;3.20;;;;;;;;;;4976956;28;20121;-70
2022/01/30 07:10:37;;;;;;;10.43;3.90;;;;;;;;;;4975954;28;20118;-69
2022/01/30 07:13:03;;;;;;;9.90;3.33;;;;;;;;;;4985326;28;20038;-71
2022/01/30 07:15:29;;;;;;;9.73;5.35;;;;;;;;;;4988217;28;20031;-70
2022/01/30 07:17:55;;;;;;;8.95;3.50;;;;;;;;;;4984945;28;20390;-70
2022/01/30 07:20:21;;;;;;;10.15;3.30;;;;;;;;;;4984915;28;20031;-70
2022/01/30 07:22:47;;;;;;;9.88;3.22;;;;;;;;;;4978054;28;20035;-70
2022/01/30 07:25:14;;;;;;;13.60;3.67;;;;;;;;;;4988089;28;20076;-69
2022/01/30 07:27:40;;;;;;;10.15;3.60;;;;;;;;;;4992912;28;20029;-69
2022/01/30 07:30:07;;;;;;;10.85;3.35;;;;;;;;;;4975540;28;20026;-70
2022/01/30 07:32:33;;;;;;;10.98;4.32;;;;;;;;;;4985070;28;20027;-69
2022/01/30 07:34:59;;;;;;;12.98;3.83;;;;;;;;;;4980802;28;20073;-70
2022/01/30 07:37:26;;;;;;;7.10;3.13;;;;;;;;;;4984841;28;20717;-69
2022/01/30 07:39:52;;;;;;;11.15;3.28;;;;;;;;;;4984703;28;20054;-69
2022/01/30 07:42:19;;;;;;;8.70;3.80;;;;;;;;;;4992857;28;20035;-69
2022/01/30 07:44:46;;;;;;;11.40;3.97;;;;;;;;;;4984301;28;20026;-69
2022/01/30 07:47:12;;;;;;;9.15;3.80;;;;;;;;;;4979884;28;20098;-68
2022/01/30 07:49:38;;;;;;;12.63;3.10;;;;;;;;;;4977617;28;20473;-70
2022/01/30 07:52:04;;;;;;;15.43;4.15;;;;;;;;;;4978328;28;20038;-70
2022/01/30 07:54:32;;;;;;;13.00;4.75;;;;;;;;;;4984516;28;20096;-70
2022/01/30 07:56:58;;;;;;;8.13;3.53;;;;;;;;;;4999228;28;20425;-70
2022/01/30 07:59:24;;;;;;;9.25;3.25;;;;;;;;;;4989043;28;20030;-70
2022/01/30 08:01:51;;;;;;;9.80;3.50;;;;;;;;;;4982224;28;20046;-70
2022/01/30 08:04:18;;;;;;;8.02;3.70;;;;;;;;;;4980498;28;20105;-71
2022/01/30 08:06:46;;;;;;;10.18;3.25;;;;;;;;;;4980435;28;20098;-70
2022/01/30 08:09:12;;;;;;;8.85;2.70;;;;;;;;;;4980994;28;20474;-70
2022/01/30 08:11:38;;;;;;;9.75;3.20;;;;;;;;;;4984028;28;20031;-69
2022/01/30 08:14:04;;;;;;;10.77;3.47;;;;;;;;;;4978203;28;20026;-70
2022/01/30 08:16:30;;;;;;;8.77;3.83;;;;;;;;;;4980133;28;20088;-69
2022/01/30 08:18:56;;;;;;;11.48;3.72;;;;;;;;;;4981660;28;20021;-69
2022/01/30 08:21:23;;;;;;;15.02;4.15;;;;;;;;;;4987085;28;20492;-70
2022/01/30 08:23:49;;;;;;;6.68;3.50;;;;;;;;;;4980955;28;20129;-68
2022/01/30 08:26:15;;;;;;;12.85;3.20;;;;;;;;;;4983477;28;20027;-68
2022/01/30 08:28:41;;;;;;;10.55;3.03;;;;;;;;;;4983079;28;20512;-70
2022/01/30 08:31:07;;;;;;;11.48;3.88;;;;;;;;;;4979233;28;20803;-69
2022/01/30 08:33:33;;;;;;;10.48;3.28;;;;;;;;;;4984825;28;20117;-68
2022/01/30 08:35:59;;;;;;;12.18;3.63;;;;;;;;;;4989404;28;20018;-69
2022/01/30 08:38:25;;;;;;;6.75;2.75;;;;;;;;;;4989904;28;20025;-69
2022/01/30 08:40:51;;;;;;;9.63;4.68;;;;;;;;;;4984589;28;20026;-70
2022/01/30 08:43:21;;;;;;;11.88;3.53;;;;;;;;;;4983090;28;20035;-69
2022/01/30 08:45:48;;;;;;;7.78;3.00;;;;;;;;;;4984934;28;20023;-70
2022/01/30 08:48:14;;;;;;;6.45;2.40;;;;;;;;;;4982693;28;20129;-70
2022/01/30 08:50:40;;;;;;;5.70;2.38;;;;;;;;;;4988297;28;20027;-69
2022/01/30 08:53:06;;;;;;;6.20;3.45;;;;;;;;;;4980353;28;20115;-69
2022/01/30 08:55:33;;;;;;;9.38;3.50;;;;;;;;;;4986680;28;20018;-69
2022/01/30 08:58:00;;;;;;;7.00;2.88;;;;;;;;;;5005977;28;20030;-70
2022/01/30 09:00:26;;;;;;;16.23;3.22;;;;;;;;;;4981338;28;20018;-70
2022/01/30 09:02:52;;;;;;;13.57;4.13;;;;;;;;;;4989056;28;20053;-70
2022/01/30 09:05:21;;;;;;;9.73;3.00;;;;;;;;;;4987896;28;20041;-70
2022/01/30 09:07:47;;;;;;;7.35;3.30;;;;;;;;;;4976499;28;20042;-70
2022/01/30 09:10:13;;;;;;;10.80;3.30;;;;;;;;;;4977781;28;20038;-70
2022/01/30 09:12:39;;;;;;;8.43;2.83;;;;;;;;;;4980323;28;20038;-70
2022/01/30 09:15:06;;;;;;;13.40;3.50;;;;;;;;;;4987403;28;20035;-69
2022/01/30 09:17:33;;;;;;;7.82;2.97;;;;;;;;;;4986029;28;20022;-70
2022/01/30 09:19:59;;;;;;;16.90;3.42;;;;;;;;;;5000196;28;20569;-69
2022/01/30 09:22:25;;;;;;;11.13;3.10;;;;;;;;;;4986583;28;20061;-70
2022/01/30 09:24:51;;;;;;;8.32;2.92;;;;;;;;;;4983188;28;20113;-70
2022/01/30 09:27:17;;;;;;;7.53;3.17;;;;;;;;;;4988533;28;20027;-68
2022/01/30 09:29:44;;;;;;;12.70;3.10;;;;;;;;;;4988752;28;20548;-69
2022/01/30 09:32:10;;;;;;;7.43;2.65;;;;;;;;;;4988526;28;20034;-70
2022/01/30 09:34:37;;;;;;;12.45;3.67;;;;;;;;;;4984500;28;20037;-70
2022/01/30 09:37:04;;;;;;;12.60;3.78;;;;;;;;;;4990009;28;20026;-68
2022/01/30 09:39:30;;;;;;;10.13;4.07;;;;;;;;;;4981420;28;20421;-70
2022/01/30 09:41:57;;;;;;;11.82;3.25;;;;;;;;;;4991111;28;20022;-70
2022/01/30 09:44:23;;;;;;;10.85;4.43;;;;;;;;;;5000610;28;20019;-69
2022/01/30 09:46:52;;;;;;;9.40;2.85;;;;;;;;;;4980901;28;20027;-70
2022/01/30 09:49:25;;;;;;;6.97;2.78;;;;;;;;;;4978934;28;20035;-71
2022/01/30 09:51:53;;;;;;;7.45;2.72;;;;;;;;;;4981888;28;20115;-70
2022/01/30 09:54:19;;;;;;;12.48;3.30;;;;;;;;;;4985995;28;20059;-70
2022/01/30 09:56:45;;;;;;;9.35;4.22;;;;;;;;;;4988905;28;20092;-70
2022/01/30 09:59:12;;;;;;;12.07;3.25;;;;;;;;;;4993645;28;20030;-71
2022/01/30 10:01:38;;;;;;;10.55;2.80;;;;;;;;;;4985990;28;20037;-70
2022/01/30 10:04:05;;;;;;;7.40;2.70;;;;;;;;;;4988871;28;20053;-70
2022/01/30 10:06:36;;;;;;;11.55;3.03;;;;;;;;;;4980491;28;20031;-70
2022/01/30 10:09:20;;;;;;;7.80;3.33;;;;;;;;;;4992105;28;20038;-70
2022/01/30 10:11:50;;;;;;;9.20;3.20;;;;;;;;;;4998162;28;20018;-70
2022/01/30 10:14:16;;;;;;;9.70;3.40;;;;;;;;;;4989459;28;20053;-70
2022/01/30 10:16:44;;;;;;;9.05;3.80;;;;;;;;;;4989532;28;20034;-70
2022/01/30 10:19:11;;;;;;;6.90;2.80;;;;;;;;;;4981440;28;20031;-69
2022/01/30 10:21:37;;;;;;;9.60;2.97;;;;;;;;;;4985222;28;20034;-70
2022/01/30 10:24:19;;;;;;;12.32;3.20;;;;;;;;;;4988831;28;20026;-70
2022/01/30 10:26:45;;;;;;;12.32;3.38;;;;;;;;;;4987825;28;20477;-69
2022/01/30 10:29:22;;;;;;;11.40;3.28;;;;;;;;;;5002449;28;20034;-69
2022/01/30 10:32:00;;;;;;;10.70;3.63;;;;;;;;;;4993180;28;20022;-70
2022/01/30 10:34:27;;;;;;;9.68;2.70;;;;;;;;;;4980425;28;20362;-70
2022/01/30 10:37:12;;;;;;;14.85;4.15;;;;;;;;;;4975446;28;20015;-69
2022/01/30 10:39:57;;;;;;;8.63;3.05;;;;;;;;;;4982511;28;20058;-70
2022/01/30 10:42:46;;;;;;;11.47;2.63;;;;;;;;;;4986512;28;20489;-70
2022/01/30 10:45:14;;;;;;;11.07;2.75;;;;;;;;;;4988585;28;20524;-70
2022/01/30 10:47:41;;;;;;;17.15;2.97;;;;;;;;;;4988081;28;20057;-70
2022/01/30 10:50:25;;;;;;;9.43;2.80;;;;;;;;;;4991982;28;20097;-70
2022/01/30 10:53:01;;;;;;;6.25;2.67;;;;;;;;;;4997171;28;20061;-70
2022/01/30 10:55:34;;;;;;;7.47;2.67;;;;;;;;;;5003925;28;20030;-71
2022/01/30 10:58:01;;;;;;;12.25;3.47;;;;;;;;;;4990630;28;20020;-70
2022/01/30 11:00:54;;;;;;;9.77;4.50;;;;;;;;;;4984080;28;20026;-70
2022/01/30 11:03:35;;;;;;;10.48;3.10;;;;;;;;;;4984432;28;20097;-70
2022/01/30 11:06:02;;;;;;;10.05;3.53;;;;;;;;;;4986130;28;20496;-70
2022/01/30 11:08:32;;;;;;;10.63;4.00;;;;;;;;;;4988601;28;20541;-72
2022/01/30 11:11:35;;;;;;;11.00;3.00;;;;;;;;;;4983090;28;20030;-71
2022/01/30 11:14:36;;;;;;;9.45;3.00;;;;;;;;;;4981329;28;20505;-71
2022/01/30 11:17:06;;;;;;;6.47;2.85;;;;;;;;;;4982509;28;20636;-71
2022/01/30 11:19:34;;;;;;;19.05;5.20;;;;;;;;;;4983902;28;20054;-71
2022/01/30 11:22:08;;;;;;;12.52;3.90;;;;;;;;;;4981365;28;20032;-70
2022/01/30 11:24:35;;;;;;;9.73;3.67;;;;;;;;;;4981546;28;20043;-70
2022/01/30 11:27:04;;;;;;;10.23;3.20;;;;;;;;;;4981723;28;20035;-71
2022/01/30 11:29:30;;;;;;;8.45;2.75;;;;;;;;;;4985992;28;20527;-71
2022/01/30 11:31:57;;;;;;;11.40;3.35;;;;;;;;;;4983292;28;20027;-71
2022/01/30 11:34:24;;;;;;;11.10;3.22;;;;;;;;;;4984185;28;20058;-71
2022/01/30 11:36:50;;;;;;;9.63;3.60;;;;;;;;;;4983661;28;20065;-72
2022/01/30 11:39:18;;;;;;;11.95;4.85;;;;;;;;;;4984542;28;20029;-71
2022/01/30 11:42:04;;;;;;;11.43;3.40;;;;;;;;;;4980844;28;20050;-71
2022/01/30 11:44:30;;;;;;;;;;;;;;;;;;4985035;28;20029;-71
2022/01/30 11:46:57;;;;;;;;;;;;;;;;;;4983359;28;20351;-71
2022/01/30 11:49:24;;;;;;;21.55;5.43;;;;;;;;;;4983437;28;20013;-71
2022/01/30 11:51:55;;;;;;;7.82;3.20;;;;;;;;;;4978023;28;20033;-71
2022/01/30 11:54:40;;;;;;;11.75;3.28;;;;;;;;;;4979268;28;20214;-71
2022/01/30 11:57:21;;;;;;;10.20;2.78;;;;;;;;;;4983899;28;20029;-71
2022/01/30 12:00:07;;;;;;;6.35;2.70;;;;;;;;;;4981103;28;20036;-71
2022/01/30 12:02:36;;;;;;;9.75;3.50;;;;;;;;;;4984588;28;20038;-71
2022/01/30 12:05:06;;;;;;;11.30;3.45;;;;;;;;;;4983238;28;20578;-72
2022/01/30 12:07:37;;;;;;;8.05;2.90;;;;;;;;;;4983815;28;20065;-72
2022/01/30 12:10:24;;;;;;;12.30;3.63;;;;;;;;;;4984392;28;20061;-71
2022/01/30 12:13:07;;;;;;;10.65;4.07;;;;;;;;;;4984852;28;20034;-72
2022/01/30 12:15:39;;;;;;;12.95;3.58;;;;;;;;;;4986754;28;20050;-73
2022/01/30 12:18:09;;;;;;;17.27;3.38;;;;;;;;;;4984779;28;20034;-72
2022/01/30 12:20:54;;;;;;;15.13;3.28;;;;;;;;;;4982914;28;20027;-72
2022/01/30 12:23:27;;;;;;;12.82;3.90;;;;;;;;;;4985624;28;20026;-72
2022/01/30 12:26:03;;;;;;;11.13;2.85;;;;;;;;;;4980764;28;20043;-72
2022/01/30 12:28:48;;;;;;;16.02;3.25;;;;;;;;;;4984480;28;20033;-70
2022/01/30 12:31:32;;;;;;;9.63;3.45;;;;;;;;;;4985536;28;20030;-70
2022/01/30 12:34:08;;;;;;;11.10;4.53;;;;;;;;;;4984756;28;20485;-70
2022/01/30 12:36:41;;;;;;;9.20;3.83;;;;;;;;;;4983227;28;20073;-72
2022/01/30 12:39:16;;;;;;;10.85;4.50;;;;;;;;;;4983263;28;20034;-71
2022/01/30 12:41:43;;;;;;;15.90;3.58;;;;;;;;;;4981341;28;20532;-70
2022/01/30 12:44:11;;;;;;;10.18;3.83;;;;;;;;;;4984299;28;20041;-72
2022/01/30 12:46:45;;;;;;;12.57;3.75;;;;;;;;;;4983138;28;20132;-71
2022/01/30 12:49:15;;;;;;;11.15;3.58;;;;;;;;;;4983433;28;20038;-71
2022/01/30 12:51:43;;;;;;;18.65;4.20;;;;;;;;;;4982100;28;20493;-71
2022/01/30 12:54:11;;;;;;;12.35;3.75;;;;;;;;;;4984706;28;20631;-71
2022/01/30 12:56:37;;;;;;;13.48;3.72;;;;;;;;;;4983668;28;20037;-70
2022/01/30 12:59:07;;;;;;;9.85;4.00;;;;;;;;;;4983369;28;20026;-69
2022/01/30 13:01:35;;;;;;;6.28;3.10;;;;;;;;;;4983889;28;20493;-70
2022/01/30 13:04:03;;;;;;;12.25;3.22;;;;;;;;;;4982268;28;20042;-70
2022/01/30 13:06:33;;;;;;;10.23;4.28;;;;;;;;;;4983964;28;20054;-70
2022/01/30 13:08:59;;;;;;;15.15;4.82;;;;;;;;;;4979349;28;20855;-70
2022/01/30 13:11:26;;;;;;;15.65;3.83;;;;;;;;;;4981127;28;20061;-72
2022/01/30 13:13:57;;;;;;;13.52;3.47;;;;;;;;;;4982983;28;20026;-73
2022/01/30 13:16:28;;;;;;;11.00;3.83;;;;;;;;;;4983475;28;20022;-71
2022/01/30 13:18:54;;;;;;;13.18;5.15;;;;;;;;;;4986768;28;20104;-71
2022/01/30 13:21:25;;;;;;;13.50;4.88;;;;;;;;;;4995807;28;20065;-70
2022/01/30 13:23:52;;;;;;;11.73;3.70;;;;;;;;;;4983308;28;20035;-70
2022/01/30 13:26:28;;;;;;;12.68;4.45;;;;;;;;;;4982460;28;20030;-71
2022/01/30 13:28:54;;;;;;;11.05;5.30;;;;;;;;;;4979234;28;20042;-70
2022/01/30 13:31:20;;;;;;;18.70;4.75;;;;;;;;;;4982857;28;20396;-70
2022/01/30 13:34:05;;;;;;;16.23;5.82;;;;;;;;;;4982577;28;20045;-69
2022/01/30 13:36:32;;;;;;;18.63;6.60;;;;;;;;;;4980669;28;20045;-69
2022/01/30 13:38:58;;;;;;;10.15;4.32;;;;;;;;;;4983715;28;20036;-72
2022/01/30 13:41:30;;;;;;;13.57;4.22;;;;;;;;;;5001682;28;20138;-71
2022/01/30 13:44:00;;;;;;;15.60;5.22;;;;;;;;;;4999447;28;20447;-71
2022/01/30 13:49:11;;;;;;;35.92;14.07;;;;;;;;;;4988855;28;20053;-71
2022/01/30 13:51:38;;;;;;;30.25;11.73;;;;;;;;;;4985753;28;20389;-71
2022/01/30 13:54:05;;;;;;;21.80;9.48;;;;;;;;;;4986311;28;20117;-72
2022/01/30 13:56:31;;;;;;;38.22;16.08;;;;;;;;;;4986885;28;20034;-70
2022/01/30 13:58:57;;;;;;;16.23;12.98;;;;;;;;;;4985390;28;20077;-70
2022/01/30 14:01:30;;;;;;;32.10;18.15;;;;;;;;;;4987230;28;20392;-71
2022/01/30 14:04:10;;;;;;;19.52;10.35;;;;;;;;;;5002092;28;20091;-71
2022/01/30 14:06:38;;;;;;;21.83;9.32;;;;;;;;;;4985250;28;20118;-70
2022/01/30 14:09:11;;;;;;;14.75;5.85;;;;;;;;;;4986873;28;20058;-71
2022/01/30 14:11:38;;;;;;;16.73;5.60;;;;;;;;;;4985540;28;20615;-69
2022/01/30 14:14:09;;;;;;;17.95;8.30;;;;;;;;;;5000463;28;20757;-71
2022/01/30 14:16:37;;;;;;;16.52;8.15;;;;;;;;;;4987296;28;20034;-70
2022/01/30 14:19:03;;;;;;;9.45;4.45;;;;;;;;;;5000822;28;20070;-70
2022/01/30 14:21:32;;;;;;;10.40;4.72;;;;;;;;;;4986823;28;20023;-72
2022/01/30 14:23:58;;;;;;;14.77;6.95;;;;;;;;;;4992231;28;20042;-72
2022/01/30 14:26:28;;;;;;;10.43;5.60;;;;;;;;;;4988757;28;20046;-72
2022/01/30 14:29:09;;;;;;;20.83;10.93;;;;;;;;;;4986919;28;20386;-71
2022/01/30 14:31:48;;;;;;;29.98;13.40;;;;;;;;;;4985365;28;20034;-71
2022/01/30 14:34:14;;;;;;;29.63;11.13;;;;;;;;;;4987993;28;20298;-71
2022/01/30 14:36:40;;;;;;;13.80;6.38;;;;;;;;;;4982710;28;20023;-71
2022/01/30 14:39:06;;;;;;;10.88;4.70;;;;;;;;;;4986533;28;20031;-72
2022/01/30 14:41:32;;;;;;;12.38;6.75;;;;;;;;;;4986814;28;20049;-71
2022/01/30 14:43:59;;;;;;;18.85;8.77;;;;;;;;;;5000878;28;20030;-71
2022/01/30 14:46:25;;;;;;;13.05;7.75;;;;;;;;;;4985221;28;20034;-71
2022/01/30 14:48:51;;;;;;;10.00;6.80;;;;;;;;;;4986957;28;20478;-71
2022/01/30 14:51:18;;;;;;;11.45;4.15;;;;;;;;;;4984340;28;20034;-71
2022/01/30 14:53:44;;;;;;;10.82;4.68;;;;;;;;;;4985197;28;20563;-71
2022/01/30 14:56:10;;;;;;;10.38;4.45;;;;;;;;;;4983927;28;20046;-70
2022/01/30 14:58:36;;;;;;;13.68;6.35;;;;;;;;;;4985973;28;20053;-69
2022/01/30 15:01:03;;;;;;;10.95;4.88;;;;;;;;;;4984153;28;20452;-70
2022/01/30 15:03:31;;;;;;;17.83;8.60;;;;;;;;;;4984803;28;20412;-70
2022/01/30 15:05:58;;;;;;;12.80;6.82;;;;;;;;;;4988047;28;20634;-69
2022/01/30 15:08:25;;;;;;;20.63;7.80;;;;;;;;;;4984578;28;20057;-71
2022/01/30 15:10:51;;;;;;;25.58;12.18;;;;;;;;;;4982533;28;20066;-70
2022/01/30 15:13:20;;;;;;;26.65;10.45;;;;;;;;;;4984166;28;20038;-71
2022/01/30 15:15:47;;;;;;;18.30;9.07;;;;;;;;;;4984004;28;20018;-70
2022/01/30 15:18:21;;;;;;;32.35;10.80;;;;;;;;;;4986274;28;20026;-70
2022/01/30 15:20:49;;;;;;;37.10;13.33;;;;;;;;;;4983948;28;20034;-71
2022/01/30 15:23:16;;;;;;;14.70;6.15;;;;;;;;;;4986174;28;20492;-70
2022/01/30 15:25:42;;;;;;;10.10;5.35;;;;;;;;;;4985977;28;20037;-70
2022/01/30 15:28:08;;;;;;;14.93;7.35;;;;;;;;;;4982106;28;20030;-70
2022/01/30 15:30:34;;;;;;;13.45;6.55;;;;;;;;;;4985872;28;20030;-70
2022/01/30 15:33:01;;;;;;;10.45;5.50;;;;;;;;;;4984844;28;20043;-71
2022/01/30 15:35:27;;;;;;;11.05;5.95;;;;;;;;;;4986238;28;20032;-72
2022/01/30 15:37:54;;;;;;;12.20;5.45;;;;;;;;;;4984549;28;20018;-71
2022/01/30 15:40:21;;;;;;;12.73;6.78;;;;;;;;;;4986441;28;20022;-71
2022/01/30 15:42:48;;;;;;;8.73;5.05;;;;;;;;;;4984705;28;20022;-70